Time;durP1;ratioP1;P1;durP2;ratioP2;P2;SDS_P1;SDS_P2;PMS_P1;PMS_P2;Temp;Humidity;BMP_temperature;BMP_pressure;BME280_temperature;BME280_humidity;BME280_pressure;Samples;Min_cycle;Max_cycle;Signal;HPM_P1;HPM_P2
2023/12/07 00:00:39;;;;;;;7.43;4.90;;;3.50;99.90;;;;;;4982345;28;20226;-73
2023/12/07 00:03:08;;;;;;;10.07;5.77;;;3.50;99.90;;;;;;4993801;28;20226;-73
2023/12/07 00:05:33;;;;;;;9.20;5.60;;;3.50;99.90;;;;;;4994721;28;20218;-73
2023/12/07 00:07:59;;;;;;;6.70;4.83;;;3.50;99.90;;;;;;5001557;28;21004;-73
2023/12/07 00:10:25;;;;;;;8.13;5.10;;;3.60;99.90;;;;;;4993380;28;20277;-73
2023/12/07 00:12:50;;;;;;;7.57;4.60;;;3.60;99.90;;;;;;4999883;28;20218;-73
2023/12/07 00:15:16;;;;;;;7.03;4.30;;;3.60;99.90;;;;;;4986258;28;20225;-73
2023/12/07 00:17:42;;;;;;;5.37;4.43;;;3.60;99.90;;;;;;4992459;28;20222;-73
2023/12/07 00:20:08;;;;;;;10.63;5.37;;;3.50;99.90;;;;;;4989869;28;20214;-73
2023/12/07 00:22:34;;;;;;;9.63;5.70;;;3.50;99.90;;;;;;4983604;28;20452;-73
2023/12/07 00:25:00;;;;;;;10.77;5.27;;;3.50;99.90;;;;;;4996208;28;20460;-73
2023/12/07 00:27:25;;;;;;;10.33;5.73;;;3.40;99.90;;;;;;4997979;28;20222;-74
2023/12/07 00:29:51;;;;;;;6.57;5.03;;;3.40;99.90;;;;;;4994889;28;20277;-74
2023/12/07 00:32:17;;;;;;;7.60;5.13;;;3.40;99.90;;;;;;5007070;28;20214;-74
2023/12/07 00:34:43;;;;;;;8.33;4.60;;;3.40;99.90;;;;;;5001750;28;20628;-74
2023/12/07 00:37:09;;;;;;;7.10;5.37;;;3.30;99.90;;;;;;4999249;28;20469;-74
2023/12/07 00:39:36;;;;;;;8.80;4.90;;;3.40;99.90;;;;;;4996993;28;20264;-74
2023/12/07 00:42:02;;;;;;;7.90;5.40;;;3.40;99.90;;;;;;4997442;28;20593;-74
2023/12/07 00:44:28;;;;;;;10.00;6.37;;;3.40;99.90;;;;;;4993182;28;20844;-74
2023/12/07 00:46:54;;;;;;;8.10;5.90;;;3.40;99.90;;;;;;4991558;28;20463;-74
2023/12/07 00:49:20;;;;;;;9.70;4.93;;;3.50;99.90;;;;;;4998336;28;20211;-74
2023/12/07 00:51:45;;;;;;;8.63;4.80;;;3.50;99.90;;;;;;4998159;28;20677;-74
2023/12/07 00:54:11;;;;;;;8.43;4.20;;;3.50;99.90;;;;;;4992789;28;20712;-74
2023/12/07 00:56:37;;;;;;;7.80;5.07;;;3.50;99.90;;;;;;4996134;28;20227;-74
2023/12/07 00:59:03;;;;;;;8.50;5.17;;;3.50;99.90;;;;;;4992660;28;20234;-74
2023/12/07 01:01:28;;;;;;;9.67;4.87;;;3.50;99.90;;;;;;4994147;28;20467;-74
2023/12/07 01:03:54;;;;;;;8.47;4.97;;;3.50;99.90;;;;;;4997317;28;20285;-74
2023/12/07 01:06:20;;;;;;;9.10;5.20;;;3.50;99.90;;;;;;5002251;28;20224;-74
2023/12/07 01:08:46;;;;;;;6.90;4.23;;;3.50;99.90;;;;;;4998118;28;20301;-75
2023/12/07 01:11:11;;;;;;;8.10;4.77;;;3.60;99.90;;;;;;4997732;28;20480;-74
2023/12/07 01:13:37;;;;;;;6.90;4.77;;;3.60;99.90;;;;;;4999314;28;20253;-75
2023/12/07 01:16:03;;;;;;;7.47;4.70;;;3.60;99.90;;;;;;4998387;28;20214;-74
2023/12/07 01:18:28;;;;;;;8.20;5.13;;;3.50;99.90;;;;;;5009956;28;20217;-72
2023/12/07 01:20:54;;;;;;;7.93;4.93;;;3.50;99.90;;;;;;4990763;28;20226;-75
2023/12/07 01:23:20;;;;;;;9.20;4.50;;;3.50;99.90;;;;;;4995454;28;20267;-74
2023/12/07 01:25:45;;;;;;;10.40;6.23;;;3.40;99.90;;;;;;4993686;28;20477;-74
2023/12/07 01:28:11;;;;;;;6.93;4.30;;;3.20;99.90;;;;;;4991961;28;20229;-73
2023/12/07 01:30:37;;;;;;;9.67;5.30;;;3.10;99.90;;;;;;4994210;28;20594;-74
2023/12/07 01:33:03;;;;;;;7.67;5.40;;;3.20;99.90;;;;;;4999874;28;20224;-74
2023/12/07 01:35:28;;;;;;;8.17;5.03;;;3.10;99.90;;;;;;4997514;28;20217;-74
2023/12/07 01:37:54;;;;;;;7.03;4.83;;;3.20;99.90;;;;;;4997757;28;20218;-74
2023/12/07 01:40:20;;;;;;;11.10;5.07;;;3.20;99.90;;;;;;4999288;28;20739;-74
2023/12/07 01:42:53;;;;;;;8.00;4.87;;;3.20;99.90;;;;;;4997718;28;20681;-73
2023/12/07 01:45:19;;;;;;;7.67;5.03;;;3.20;99.90;;;;;;4998641;28;20233;-74
2023/12/07 01:47:46;;;;;;;9.27;5.33;;;3.30;99.90;;;;;;5004995;28;20483;-75
2023/12/07 01:50:15;;;;;;;7.77;5.40;;;3.30;99.90;;;;;;5020108;28;20444;-74
2023/12/07 01:52:45;;;;;;;14.13;6.37;;;3.40;99.90;;;;;;5009219;28;20506;-74
2023/12/07 01:55:11;;;;;;;8.10;5.00;;;3.40;99.90;;;;;;5018205;28;20464;-75
2023/12/07 01:57:37;;;;;;;10.20;6.07;;;3.10;99.90;;;;;;4986060;28;20481;-74
2023/12/07 02:00:04;;;;;;;11.53;5.87;;;3.00;99.90;;;;;;4994399;28;20473;-75
2023/12/07 02:02:31;;;;;;;7.90;5.07;;;3.00;99.90;;;;;;5003750;28;20449;-74
2023/12/07 02:05:00;;;;;;;7.27;5.40;;;3.10;99.90;;;;;;4990479;28;20458;-74
2023/12/07 02:07:27;;;;;;;6.77;4.60;;;3.20;99.90;;;;;;4986401;28;20507;-73
2023/12/07 02:09:53;;;;;;;12.47;5.10;;;3.30;99.90;;;;;;4988886;28;20225;-73
2023/12/07 02:12:19;;;;;;;10.07;5.60;;;3.30;99.90;;;;;;5001041;28;20448;-74
2023/12/07 02:14:45;;;;;;;7.80;6.40;;;3.40;99.90;;;;;;4996419;28;20553;-74
2023/12/07 02:17:40;;;;;;;10.00;7.10;;;3.40;99.90;;;;;;4993264;28;20549;-74
2023/12/07 02:20:26;;;;;;;9.80;5.20;;;3.40;99.90;;;;;;4991948;28;20462;-74
2023/12/07 02:22:59;;;;;;;9.27;5.10;;;3.40;99.90;;;;;;4975207;28;20461;-74
2023/12/07 02:25:32;;;;;;;8.47;5.83;;;3.30;99.90;;;;;;4994925;28;20467;-74
2023/12/07 02:27:58;;;;;;;8.90;5.30;;;3.30;99.90;;;;;;4995238;28;20469;-73
2023/12/07 02:30:23;;;;;;;9.23;5.80;;;3.30;99.90;;;;;;4997373;28;20448;-74
2023/12/07 02:32:49;;;;;;;11.07;5.97;;;3.30;99.90;;;;;;4993385;28;20202;-73
2023/12/07 02:35:15;;;;;;;8.97;5.43;;;3.30;99.90;;;;;;5003969;28;20648;-74
2023/12/07 02:37:48;;;;;;;6.40;4.70;;;3.30;99.90;;;;;;4997611;28;20310;-74
2023/12/07 02:40:17;;;;;;;8.90;5.20;;;3.30;99.90;;;;;;4995740;28;20225;-73
2023/12/07 02:42:43;;;;;;;7.90;4.93;;;3.30;99.90;;;;;;4997609;28;20456;-73
2023/12/07 02:45:10;;;;;;;7.53;4.77;;;3.30;99.90;;;;;;5006119;28;20540;-74
2023/12/07 02:47:36;;;;;;;8.30;5.50;;;3.20;99.90;;;;;;4995421;28;20308;-74
2023/12/07 02:50:04;;;;;;;8.20;5.67;;;3.10;99.90;;;;;;5028059;28;20520;-74
2023/12/07 02:52:30;;;;;;;13.47;6.10;;;3.00;99.90;;;;;;5010881;28;20451;-74
2023/12/07 02:54:55;;;;;;;12.20;5.63;;;3.10;99.90;;;;;;5006988;28;20533;-74
2023/12/07 02:57:21;;;;;;;11.10;5.50;;;3.10;99.90;;;;;;5012859;28;20214;-74
2023/12/07 02:59:46;;;;;;;7.30;4.47;;;3.20;99.90;;;;;;5019974;28;20262;-73
2023/12/07 03:02:12;;;;;;;8.53;6.20;;;3.20;99.90;;;;;;5003856;28;20221;-74
2023/12/07 03:04:38;;;;;;;7.00;4.80;;;3.10;99.90;;;;;;5000933;28;20229;-73
2023/12/07 03:07:04;;;;;;;12.60;5.87;;;3.20;99.90;;;;;;5020729;28;20218;-74
2023/12/07 03:09:29;;;;;;;8.00;5.70;;;3.20;99.90;;;;;;5006393;28;20213;-74
2023/12/07 03:11:55;;;;;;;9.03;5.43;;;3.20;99.90;;;;;;5029247;28;20490;-73
2023/12/07 03:14:20;;;;;;;6.87;5.23;;;3.20;99.90;;;;;;5031272;28;20568;-74
2023/12/07 03:16:46;;;;;;;10.93;5.87;;;3.20;99.90;;;;;;5018771;28;20205;-74
2023/12/07 03:19:12;;;;;;;6.80;4.80;;;3.20;99.90;;;;;;5014138;28;20297;-74
2023/12/07 03:21:42;;;;;;;8.13;5.97;;;3.20;99.90;;;;;;5006524;28;20226;-73
2023/12/07 03:24:09;;;;;;;7.27;5.60;;;3.20;99.90;;;;;;5004145;28;20222;-74
2023/12/07 03:26:35;;;;;;;10.37;5.70;;;3.10;99.90;;;;;;5000219;28;20461;-75
2023/12/07 03:29:00;;;;;;;7.47;4.83;;;3.10;99.90;;;;;;5006090;28;20445;-74
2023/12/07 03:31:27;;;;;;;9.40;5.27;;;3.10;99.90;;;;;;5001710;28;20455;-73
2023/12/07 03:33:53;;;;;;;10.97;6.30;;;3.10;99.90;;;;;;4990846;28;20227;-73
2023/12/07 03:36:19;;;;;;;8.87;5.93;;;3.10;99.90;;;;;;4977443;28;20519;-74
2023/12/07 03:38:44;;;;;;;8.40;5.40;;;3.10;99.90;;;;;;4996920;28;20560;-75
2023/12/07 03:41:10;;;;;;;9.70;5.67;;;3.10;99.90;;;;;;5000817;28;20227;-74
2023/12/07 03:43:36;;;;;;;11.60;6.57;;;3.10;99.90;;;;;;5000038;28;20305;-74
2023/12/07 03:46:07;;;;;;;9.07;4.80;;;3.10;99.90;;;;;;4994123;28;20750;-73
2023/12/07 03:48:34;;;;;;;6.27;5.00;;;3.20;99.90;;;;;;5004266;28;20218;-72
2023/12/07 03:51:00;;;;;;;8.77;5.63;;;3.20;99.90;;;;;;4994875;28;20525;-73
2023/12/07 03:53:26;;;;;;;6.47;4.97;;;3.20;99.90;;;;;;5000180;28;20533;-74
2023/12/07 03:55:52;;;;;;;15.40;5.80;;;3.00;99.90;;;;;;4998938;28;20540;-73
2023/12/07 03:58:17;;;;;;;12.13;6.13;;;3.00;99.90;;;;;;5004618;28;20276;-74
2023/12/07 04:00:44;;;;;;;7.63;4.97;;;2.90;99.90;;;;;;4989260;28;20636;-74
2023/12/07 04:03:10;;;;;;;9.03;5.50;;;2.90;99.90;;;;;;4981835;28;20218;-74
2023/12/07 04:05:35;;;;;;;8.07;5.17;;;2.90;99.90;;;;;;4991117;28;20486;-73
2023/12/07 04:08:01;;;;;;;8.40;5.00;;;2.90;99.90;;;;;;4989393;28;20264;-73
2023/12/07 04:10:27;;;;;;;8.47;5.03;;;2.90;99.90;;;;;;4996123;28;20224;-74
2023/12/07 04:12:52;;;;;;;9.30;4.73;;;2.90;99.90;;;;;;4996721;28;20214;-73
2023/12/07 04:15:21;;;;;;;7.80;5.70;;;3.00;99.90;;;;;;4997854;28;20218;-73
2023/12/07 04:17:47;;;;;;;7.83;4.93;;;3.00;99.90;;;;;;4999028;28;20232;-74
2023/12/07 04:20:13;;;;;;;7.90;4.70;;;3.10;99.90;;;;;;4990851;28;20454;-74
2023/12/07 04:22:39;;;;;;;7.03;4.70;;;3.10;99.90;;;;;;4994206;28;20244;-74
2023/12/07 04:25:06;;;;;;;12.53;5.27;;;3.10;99.90;;;;;;5008709;28;20275;-73
2023/12/07 04:27:33;;;;;;;9.90;5.23;;;3.10;99.90;;;;;;5000580;28;20458;-73
2023/12/07 04:29:58;;;;;;;9.80;5.43;;;3.10;99.90;;;;;;5000889;28;20474;-74
2023/12/07 04:32:24;;;;;;;10.07;6.03;;;3.10;99.90;;;;;;4997042;28;20485;-73
2023/12/07 04:34:49;;;;;;;9.80;5.23;;;3.10;99.90;;;;;;4999683;28;20225;-74
2023/12/07 04:37:15;;;;;;;8.47;4.70;;;3.10;99.90;;;;;;4978109;28;20218;-72
2023/12/07 04:39:41;;;;;;;7.03;4.90;;;3.20;99.90;;;;;;5004689;28;20233;-74
2023/12/07 04:42:07;;;;;;;8.50;5.30;;;3.20;99.90;;;;;;5000921;28;20230;-74
2023/12/07 04:44:32;;;;;;;10.13;4.60;;;3.10;99.90;;;;;;5007117;28;20264;-73
2023/12/07 04:46:58;;;;;;;6.23;4.73;;;3.10;99.90;;;;;;5000475;28;20219;-72
2023/12/07 04:49:24;;;;;;;15.73;6.73;;;3.10;99.90;;;;;;4997399;28;20214;-73
2023/12/07 04:51:49;;;;;;;9.10;5.07;;;3.10;99.90;;;;;;4989619;28;20215;-74
2023/12/07 04:54:15;;;;;;;19.30;5.80;;;3.10;99.90;;;;;;4997176;28;20310;-74
2023/12/07 04:56:41;;;;;;;10.83;6.03;;;3.10;99.90;;;;;;4997871;28;20222;-73
2023/12/07 04:59:09;;;;;;;12.23;6.70;;;3.10;99.90;;;;;;4989873;28;20249;-73
2023/12/07 05:01:35;;;;;;;7.43;4.97;;;3.10;99.90;;;;;;4988245;28;20522;-73
2023/12/07 05:04:03;;;;;;;13.00;6.93;;;3.10;99.90;;;;;;4992943;28;20489;-72
2023/12/07 05:06:29;;;;;;;8.23;5.83;;;3.00;99.90;;;;;;4995741;28;20445;-72
2023/12/07 05:08:55;;;;;;;9.73;5.67;;;3.00;99.90;;;;;;4992655;28;20465;-73
2023/12/07 05:11:21;;;;;;;8.17;5.50;;;3.00;99.90;;;;;;4994327;28;20457;-72
2023/12/07 05:13:47;;;;;;;7.60;5.73;;;3.10;99.90;;;;;;4994672;28;20265;-74
2023/12/07 05:16:14;;;;;;;13.93;7.10;;;3.10;99.90;;;;;;4995079;28;20628;-73
2023/12/07 05:18:40;;;;;;;8.50;5.23;;;3.10;99.90;;;;;;5000983;28;20489;-73
2023/12/07 05:21:06;;;;;;;9.83;6.80;;;3.10;99.90;;;;;;4992426;28;20553;-72
2023/12/07 05:23:32;;;;;;;9.00;5.23;;;3.10;99.90;;;;;;4995668;28;20453;-73
2023/12/07 05:25:57;;;;;;;13.50;6.30;;;3.10;99.90;;;;;;4988957;28;20463;-73
2023/12/07 05:28:23;;;;;;;10.47;5.90;;;3.10;99.90;;;;;;4998107;28;20259;-74
2023/12/07 05:30:49;;;;;;;7.97;5.70;;;3.10;99.90;;;;;;4990172;28;20233;-73
2023/12/07 05:33:15;;;;;;;8.73;5.57;;;3.10;99.90;;;;;;4989872;28;20218;-72
2023/12/07 05:35:41;;;;;;;10.00;5.80;;;3.10;99.90;;;;;;4990187;28;20218;-73
2023/12/07 05:38:07;;;;;;;11.20;6.93;;;3.10;99.90;;;;;;4985604;28;20521;-73
2023/12/07 05:40:33;;;;;;;9.97;7.17;;;3.10;99.90;;;;;;4990945;28;20260;-72
2023/12/07 05:42:59;;;;;;;10.47;7.20;;;3.20;99.90;;;;;;4992749;28;20742;-72
2023/12/07 05:45:26;;;;;;;11.53;8.00;;;3.10;99.90;;;;;;4997994;28;20532;-72
2023/12/07 05:47:51;;;;;;;12.00;7.00;;;3.10;99.90;;;;;;4989774;28;20221;-73
2023/12/07 05:50:18;;;;;;;14.80;7.30;;;3.00;99.90;;;;;;4991641;28;20480;-73
2023/12/07 05:52:43;;;;;;;9.83;6.00;;;3.00;99.90;;;;;;4985213;28;20985;-73
2023/12/07 05:55:09;;;;;;;10.40;7.90;;;3.00;99.90;;;;;;5000150;28;20545;-71
2023/12/07 05:57:35;;;;;;;10.60;6.60;;;3.00;99.90;;;;;;5004631;28;20224;-72
2023/12/07 06:00:01;;;;;;;12.90;6.90;;;3.00;99.90;;;;;;4993223;28;20325;-72
2023/12/07 06:02:26;;;;;;;11.60;6.83;;;3.00;99.90;;;;;;5000860;28;20214;-71
2023/12/07 06:04:53;;;;;;;10.23;6.50;;;3.00;99.90;;;;;;4999214;28;20477;-74
2023/12/07 06:07:18;;;;;;;12.20;6.70;;;3.00;99.90;;;;;;4996566;28;20206;-73
2023/12/07 06:09:44;;;;;;;11.70;6.20;;;3.00;99.90;;;;;;4977920;28;20469;-73
2023/12/07 06:12:10;;;;;;;10.10;6.60;;;3.00;99.90;;;;;;5000444;28;20223;-72
2023/12/07 06:14:35;;;;;;;15.40;7.20;;;3.00;99.90;;;;;;4995018;28;20221;-73
2023/12/07 06:17:01;;;;;;;11.83;7.40;;;3.00;99.90;;;;;;4993115;28;20233;-73
2023/12/07 06:19:27;;;;;;;18.50;6.50;;;3.00;99.90;;;;;;4994143;28;20237;-72
2023/12/07 06:21:52;;;;;;;14.90;8.17;;;2.90;99.90;;;;;;4994395;28;20352;-72
2023/12/07 06:24:18;;;;;;;11.40;6.20;;;2.80;99.90;;;;;;5001551;28;20308;-73
2023/12/07 06:26:44;;;;;;;13.87;7.13;;;2.60;99.90;;;;;;4996957;28;20215;-71
2023/12/07 06:29:09;;;;;;;11.17;6.77;;;2.00;99.90;;;;;;4993496;28;20339;-72
2023/12/07 06:31:35;;;;;;;12.00;6.93;;;1.90;99.90;;;;;;4997301;28;20497;-71
2023/12/07 06:34:01;;;;;;;20.80;7.53;;;2.10;99.90;;;;;;4998486;28;20703;-72
2023/12/07 06:36:27;;;;;;;13.20;6.87;;;2.20;99.90;;;;;;5001040;28;20698;-72
2023/12/07 06:38:54;;;;;;;13.30;7.03;;;2.40;99.90;;;;;;5006392;28;20229;-72
2023/12/07 06:41:20;;;;;;;11.10;6.10;;;2.40;99.90;;;;;;5003331;28;20305;-71
2023/12/07 06:43:46;;;;;;;16.80;7.73;;;2.40;99.90;;;;;;4996591;28;20895;-72
2023/12/07 06:46:16;;;;;;;13.43;7.53;;;2.40;99.90;;;;;;4996460;28;20348;-72
2023/12/07 06:48:41;;;;;;;18.90;7.60;;;2.20;99.90;;;;;;5003559;28;20343;-71
2023/12/07 06:51:07;;;;;;;13.90;7.60;;;2.10;99.90;;;;;;4994563;28;20537;-72
2023/12/07 06:53:33;;;;;;;11.57;7.07;;;2.00;99.90;;;;;;5007784;28;20218;-72
2023/12/07 06:55:59;;;;;;;12.83;7.20;;;1.70;99.90;;;;;;4999949;28;20458;-72
2023/12/07 06:58:25;;;;;;;16.80;7.27;;;1.60;99.90;;;;;;4998013;28;20230;-72
2023/12/07 07:00:50;;;;;;;18.50;8.10;;;1.80;99.90;;;;;;5002327;28;20301;-72
2023/12/07 07:03:16;;;;;;;15.03;7.27;;;2.00;99.90;;;;;;4984485;28;20223;-73
2023/12/07 07:05:42;;;;;;;17.83;7.70;;;2.10;99.90;;;;;;4991545;28;20222;-73
2023/12/07 07:08:08;;;;;;;11.03;6.27;;;2.00;99.90;;;;;;5004193;28;20456;-72
2023/12/07 07:10:35;;;;;;;12.90;6.87;;;2.20;99.90;;;;;;4998004;28;20441;-72
2023/12/07 07:13:04;;;;;;;19.57;9.50;;;2.30;99.90;;;;;;4991980;28;20237;-72
2023/12/07 07:15:33;;;;;;;15.80;8.20;;;2.20;99.90;;;;;;5011481;28;20465;-73
2023/12/07 07:17:59;;;;;;;12.40;6.30;;;2.00;99.90;;;;;;5007289;28;20468;-72
2023/12/07 07:20:26;;;;;;;15.90;8.13;;;2.20;99.90;;;;;;4998907;28;20458;-73
2023/12/07 07:22:52;;;;;;;14.70;7.20;;;2.10;99.90;;;;;;5006336;28;20445;-72
2023/12/07 07:25:19;;;;;;;14.77;6.50;;;2.10;99.90;;;;;;4976494;28;20453;-71
2023/12/07 07:27:47;;;;;;;11.53;5.40;;;2.10;99.90;;;;;;5005810;28;20221;-72
2023/12/07 07:30:13;;;;;;;9.67;5.17;;;1.90;99.90;;;;;;4992649;28;20461;-73
2023/12/07 07:32:40;;;;;;;13.50;6.87;;;1.90;99.90;;;;;;5009473;28;20524;-70
2023/12/07 07:35:06;;;;;;;12.73;6.37;;;2.10;99.90;;;;;;4992453;28;20482;-73
2023/12/07 07:37:32;;;;;;;10.40;5.93;;;2.20;99.90;;;;;;4985235;28;20457;-71
2023/12/07 07:39:59;;;;;;;12.57;5.83;;;2.30;99.90;;;;;;5006472;28;20560;-72
2023/12/07 07:42:25;;;;;;;10.03;5.30;;;2.40;99.90;;;;;;4993284;28;20450;-73
2023/12/07 07:44:51;;;;;;;9.63;6.37;;;2.30;99.90;;;;;;5001956;28;21012;-73
2023/12/07 07:47:17;;;;;;;12.27;5.70;;;2.30;99.90;;;;;;4995643;28;20224;-73
2023/12/07 07:49:42;;;;;;;11.57;6.30;;;2.40;99.90;;;;;;4998925;28;20214;-73
2023/12/07 07:52:08;;;;;;;13.07;6.47;;;2.40;99.90;;;;;;4998512;28;20317;-73
2023/12/07 07:54:34;;;;;;;9.30;5.73;;;2.50;99.90;;;;;;5004228;28;20253;-73
2023/12/07 07:56:59;;;;;;;14.27;6.20;;;2.50;99.90;;;;;;5000526;28;20226;-73
2023/12/07 07:59:25;;;;;;;11.87;6.40;;;2.50;99.90;;;;;;4997626;28;20229;-71
2023/12/07 08:01:51;;;;;;;10.97;5.63;;;2.60;99.90;;;;;;5001213;28;20221;-72
2023/12/07 08:04:16;;;;;;;9.80;5.90;;;2.50;99.90;;;;;;5004717;28;20225;-72
2023/12/07 08:06:42;;;;;;;9.90;5.33;;;2.50;99.90;;;;;;5006134;28;20218;-72
2023/12/07 08:09:09;;;;;;;11.77;6.47;;;2.40;99.90;;;;;;4996115;28;20226;-72
2023/12/07 08:11:35;;;;;;;11.73;5.60;;;2.50;99.90;;;;;;5001781;28;20222;-73
2023/12/07 08:14:00;;;;;;;8.80;5.27;;;2.60;99.90;;;;;;4991604;28;20528;-72
2023/12/07 08:16:27;;;;;;;10.70;5.30;;;2.60;99.90;;;;;;5008760;28;20222;-73
2023/12/07 08:18:53;;;;;;;11.33;6.00;;;2.60;99.90;;;;;;5009751;28;20230;-72
2023/12/07 08:21:25;;;;;;;6.77;4.90;;;2.50;99.90;;;;;;5008502;28;20518;-73
2023/12/07 08:23:51;;;;;;;12.27;6.30;;;2.50;99.90;;;;;;4994683;28;20229;-73
2023/12/07 08:26:17;;;;;;;12.83;5.33;;;2.50;99.90;;;;;;4996488;28;20436;-72
2023/12/07 08:28:43;;;;;;;11.97;5.60;;;2.50;99.90;;;;;;4990662;28;20222;-73
2023/12/07 08:31:10;;;;;;;12.07;6.30;;;2.60;99.90;;;;;;4998666;28;20457;-71
2023/12/07 08:33:38;;;;;;;12.40;6.40;;;2.70;99.90;;;;;;5005643;28;20449;-73
2023/12/07 08:36:05;;;;;;;16.03;6.80;;;2.70;99.90;;;;;;5007774;28;20458;-72
2023/12/07 08:38:31;;;;;;;17.47;7.60;;;2.60;99.90;;;;;;5001920;28;20485;-73
2023/12/07 08:40:57;;;;;;;12.23;6.80;;;2.60;99.90;;;;;;5005986;28;20997;-73
2023/12/07 08:43:24;;;;;;;18.40;7.97;;;2.60;99.90;;;;;;5003257;28;20449;-73
2023/12/07 08:45:53;;;;;;;13.10;6.93;;;2.60;99.90;;;;;;4999623;28;20479;-73
2023/12/07 08:48:22;;;;;;;18.93;6.87;;;2.70;99.90;;;;;;5008005;28;20452;-73
2023/12/07 08:50:47;;;;;;;12.83;6.63;;;2.40;99.90;;;;;;5001671;28;20454;-72
2023/12/07 08:53:13;;;;;;;13.27;6.23;;;2.30;99.90;;;;;;5005604;28;20463;-73
2023/12/07 08:55:39;;;;;;;17.00;8.60;;;2.50;99.90;;;;;;5003881;28;20227;-73
2023/12/07 08:58:05;;;;;;;16.90;9.93;;;2.50;99.90;;;;;;5004781;28;20280;-72
2023/12/07 09:00:32;;;;;;;30.20;11.67;;;2.60;99.90;;;;;;5005967;28;20468;-72
2023/12/07 09:02:58;;;;;;;22.10;11.77;;;2.70;99.90;;;;;;5004810;28;20456;-72
2023/12/07 09:05:28;;;;;;;25.57;11.00;;;2.70;99.90;;;;;;5011294;28;20509;-73
2023/12/07 09:07:53;;;;;;;28.20;11.77;;;2.70;99.90;;;;;;5002656;28;20305;-73
2023/12/07 09:10:20;;;;;;;14.30;7.93;;;2.70;99.90;;;;;;5001050;28;20913;-73
2023/12/07 09:12:45;;;;;;;20.23;7.23;;;2.70;99.90;;;;;;5010118;28;20222;-73
2023/12/07 09:15:12;;;;;;;14.87;7.23;;;2.70;99.90;;;;;;5000220;28;20433;-72
2023/12/07 09:17:41;;;;;;;15.30;7.27;;;2.70;99.90;;;;;;4998214;28;20766;-73
2023/12/07 09:20:14;;;;;;;9.70;6.30;;;2.70;99.90;;;;;;4999266;28;20460;-72
2023/12/07 09:22:48;;;;;;;11.77;5.67;;;2.70;99.90;;;;;;5003565;28;20472;-72
2023/12/07 09:25:15;;;;;;;13.33;6.47;;;2.70;99.90;;;;;;5009703;28;20878;-72
2023/12/07 09:27:41;;;;;;;9.37;6.00;;;2.70;99.90;;;;;;5013531;28;20528;-72
2023/12/07 09:30:10;;;;;;;10.13;5.90;;;2.80;99.90;;;;;;5011012;28;20540;-73
2023/12/07 09:32:38;;;;;;;11.87;5.63;;;2.80;99.90;;;;;;4989463;28;20218;-73
2023/12/07 09:35:07;;;;;;;8.83;5.70;;;2.80;99.90;;;;;;4999742;28;20465;-73
2023/12/07 09:37:36;;;;;;;12.07;7.27;;;2.80;99.90;;;;;;5009608;28;20491;-72
2023/12/07 09:40:04;;;;;;;56.87;26.57;;;2.80;99.90;;;;;;5001356;28;20507;-73
2023/12/07 09:42:30;;;;;;;42.07;23.83;;;2.80;99.90;;;;;;5001523;28;20445;-73
2023/12/07 09:44:55;;;;;;;25.03;12.57;;;2.80;99.90;;;;;;5012506;28;20970;-73
2023/12/07 09:47:21;;;;;;;43.17;21.83;;;2.80;99.90;;;;;;4999546;28;20211;-72
2023/12/07 09:49:47;;;;;;;27.47;16.33;;;2.70;99.90;;;;;;5005990;28;20222;-73
2023/12/07 09:52:13;;;;;;;24.40;12.30;;;2.70;99.90;;;;;;5015773;28;20214;-73
2023/12/07 09:54:43;;;;;;;34.27;15.97;;;2.80;99.90;;;;;;5007677;28;20356;-73
2023/12/07 09:57:09;;;;;;;30.17;16.47;;;2.80;99.90;;;;;;4995402;28;20454;-73
2023/12/07 09:59:39;;;;;;;17.03;10.07;;;2.80;99.90;;;;;;4990830;28;20469;-72
2023/12/07 10:02:07;;;;;;;16.03;8.17;;;2.80;99.90;;;;;;4992354;28;20222;-73
2023/12/07 10:04:33;;;;;;;10.67;6.53;;;2.80;99.90;;;;;;4992237;28;20469;-73
2023/12/07 10:06:58;;;;;;;14.87;7.30;;;2.80;99.90;;;;;;5004132;28;20466;-73
2023/12/07 10:09:25;;;;;;;23.10;10.40;;;2.70;99.90;;;;;;4992163;28;20218;-73
2023/12/07 10:12:02;;;;;;;26.43;10.97;;;2.80;99.90;;;;;;5000352;28;20214;-73
2023/12/07 10:14:28;;;;;;;67.23;15.57;;;2.80;99.90;;;;;;5013566;28;20547;-72
2023/12/07 10:16:57;;;;;;;54.77;17.70;;;2.80;99.90;;;;;;4990942;28;20537;-73
2023/12/07 10:19:24;;;;;;;64.23;17.43;;;2.80;99.90;;;;;;5004614;28;20735;-73
2023/12/07 10:21:51;;;;;;;47.27;14.47;;;2.80;99.90;;;;;;4997902;28;20457;-74
2023/12/07 10:24:22;;;;;;;26.50;12.53;;;2.80;99.90;;;;;;4994012;28;20589;-74
2023/12/07 10:26:49;;;;;;;19.60;11.37;;;2.80;99.90;;;;;;4990127;28;20458;-73
2023/12/07 10:29:16;;;;;;;18.47;8.70;;;2.80;99.90;;;;;;4996334;28;20458;-74
2023/12/07 10:31:43;;;;;;;15.50;7.60;;;2.90;99.90;;;;;;5005725;28;20532;-73
2023/12/07 10:34:09;;;;;;;12.27;5.80;;;2.80;99.90;;;;;;4997040;28;20473;-73
2023/12/07 10:36:35;;;;;;;11.90;6.10;;;2.80;99.90;;;;;;5004031;28;20461;-74
2023/12/07 10:39:06;;;;;;;9.80;6.20;;;2.80;99.90;;;;;;5002567;28;20531;-73
2023/12/07 10:41:33;;;;;;;12.00;5.53;;;2.80;99.90;;;;;;5006719;28;20226;-73
2023/12/07 10:44:06;;;;;;;10.23;5.63;;;2.80;99.90;;;;;;4991536;28;20520;-73
2023/12/07 10:46:38;;;;;;;11.83;7.23;;;2.80;99.90;;;;;;5005340;28;21045;-73
2023/12/07 10:49:10;;;;;;;9.10;5.37;;;2.80;99.90;;;;;;5002082;28;20457;-73
2023/12/07 10:51:49;;;;;;;15.10;6.00;;;2.80;99.90;;;;;;4992166;28;20504;-73
2023/12/07 10:54:21;;;;;;;9.53;5.60;;;2.80;99.90;;;;;;5006902;28;20465;-73
2023/12/07 10:56:50;;;;;;;11.23;6.07;;;2.80;99.90;;;;;;4997881;28;20547;-73
2023/12/07 10:59:16;;;;;;;11.90;5.57;;;2.80;99.90;;;;;;4994945;28;20476;-74
2023/12/07 11:01:43;;;;;;;9.60;4.70;;;2.80;99.90;;;;;;4999314;28;20469;-73
2023/12/07 11:04:13;;;;;;;15.50;6.37;;;2.80;99.90;;;;;;5000321;28;20452;-73
2023/12/07 11:06:46;;;;;;;12.83;6.50;;;2.80;99.90;;;;;;4997103;28;20473;-74
2023/12/07 11:09:24;;;;;;;14.27;7.50;;;2.80;99.90;;;;;;4991994;28;20456;-73
2023/12/07 11:11:59;;;;;;;15.33;8.30;;;2.80;99.90;;;;;;5000665;28;20492;-73
2023/12/07 11:14:25;;;;;;;13.17;6.67;;;2.80;99.90;;;;;;4997872;28;20456;-73
2023/12/07 11:16:53;;;;;;;15.00;6.40;;;2.80;99.90;;;;;;4998905;28;20457;-74
2023/12/07 11:19:35;;;;;;;14.73;6.40;;;2.80;99.90;;;;;;5009608;28;20464;-73
2023/12/07 11:22:06;;;;;;;13.03;5.97;;;2.80;99.90;;;;;;4997217;28;20450;-74
2023/12/07 11:24:32;;;;;;;9.57;6.50;;;2.80;99.90;;;;;;4978675;28;20484;-74
2023/12/07 11:26:58;;;;;;;11.90;6.33;;;2.80;99.90;;;;;;4993553;28;21037;-74
2023/12/07 11:29:25;;;;;;;12.90;5.87;;;2.80;99.90;;;;;;5001105;28;20221;-73
2023/12/07 11:31:51;;;;;;;15.20;6.37;;;2.90;99.90;;;;;;5005896;28;20459;-73
2023/12/07 11:34:40;;;;;;;16.17;6.40;;;2.90;99.90;;;;;;4999433;28;20452;-73
2023/12/07 11:37:07;;;;;;;11.27;5.57;;;2.90;99.90;;;;;;4971288;28;20462;-74
2023/12/07 11:39:36;;;;;;;10.13;5.50;;;2.90;99.90;;;;;;4994770;28;20520;-74
2023/12/07 11:42:15;;;;;;;12.93;6.40;;;2.90;99.90;;;;;;5000113;28;20464;-74
2023/12/07 11:44:42;;;;;;;12.60;6.17;;;2.90;99.90;;;;;;4996016;28;20474;-73
2023/12/07 11:47:08;;;;;;;11.77;5.80;;;2.90;99.90;;;;;;4995328;28;20457;-73
2023/12/07 11:49:34;;;;;;;10.83;5.50;;;2.90;99.90;;;;;;4996277;28;20511;-74
2023/12/07 11:52:01;;;;;;;18.17;8.30;;;2.90;99.90;;;;;;5000209;28;20457;-74
2023/12/07 11:54:27;;;;;;;18.00;9.73;;;2.90;99.90;;;;;;5004419;28;20545;-74
2023/12/07 11:56:58;;;;;;;19.30;9.43;;;2.90;99.90;;;;;;4997621;28;20469;-74
2023/12/07 11:59:25;;;;;;;20.53;8.93;;;2.90;99.90;;;;;;4988611;28;21038;-73
2023/12/07 12:01:51;;;;;;;23.27;9.50;;;2.90;99.90;;;;;;5007229;28;20453;-73
2023/12/07 12:04:17;;;;;;;21.87;10.63;;;2.90;99.90;;;;;;4999333;28;20458;-73
2023/12/07 12:06:44;;;;;;;19.73;11.43;;;2.90;99.90;;;;;;4990037;28;20532;-74
2023/12/07 12:09:17;;;;;;;21.83;13.40;;;2.90;99.90;;;;;;4995198;28;20462;-74
2023/12/07 12:11:49;;;;;;;21.30;12.63;;;2.90;99.90;;;;;;5001169;28;20464;-73
2023/12/07 12:14:16;;;;;;;17.63;11.17;;;2.90;99.90;;;;;;5015496;28;20452;-74
2023/12/07 12:16:45;;;;;;;19.00;11.33;;;2.90;99.90;;;;;;5009853;28;20886;-74
2023/12/07 12:19:11;;;;;;;16.27;10.47;;;2.90;99.90;;;;;;5012351;28;21115;-74
2023/12/07 12:21:40;;;;;;;19.10;9.00;;;2.90;99.90;;;;;;5022616;28;20456;-74
2023/12/07 12:24:06;;;;;;;16.17;8.57;;;2.90;99.90;;;;;;5013764;28;20228;-74
2023/12/07 12:26:38;;;;;;;17.60;8.90;;;2.90;99.90;;;;;;5011089;28;20468;-74
2023/12/07 12:29:05;;;;;;;14.93;8.37;;;2.90;99.90;;;;;;5027636;28;21006;-73
2023/12/07 12:31:31;;;;;;;16.90;7.60;;;2.90;99.90;;;;;;5011861;28;20460;-73
2023/12/07 12:33:57;;;;;;;17.33;8.10;;;2.90;99.90;;;;;;5011815;28;20457;-74
2023/12/07 12:36:23;;;;;;;21.27;8.20;;;2.80;99.90;;;;;;5000000;28;20456;-74
2023/12/07 12:38:52;;;;;;;13.67;7.13;;;2.90;99.90;;;;;;5006166;28;20222;-74
2023/12/07 12:41:19;;;;;;;11.80;7.50;;;2.80;99.90;;;;;;4995631;28;20453;-74
2023/12/07 12:43:45;;;;;;;14.17;8.10;;;2.90;99.90;;;;;;5009432;28;20543;-74
2023/12/07 12:46:11;;;;;;;14.93;6.67;;;2.90;99.90;;;;;;5008923;28;20467;-73
2023/12/07 12:48:37;;;;;;;13.60;7.03;;;2.90;99.90;;;;;;4999814;28;20454;-72